sensor_id;sensor_type;location;lat;lon;timestamp;P1;durP1;ratioP1;P2;durP2;ratioP2
71343;SDS011;59146;43.850;25.948;2023-02-23T00:01:36;13.05;;;5.38;;
71343;SDS011;59146;43.850;25.948;2023-02-23T00:04:02;10.20;;;6.35;;
71343;SDS011;59146;43.850;25.948;2023-02-23T00:06:29;11.80;;;5.72;;
71343;SDS011;59146;43.850;25.948;2023-02-23T00:08:55;11.18;;;5.60;;
71343;SDS011;59146;43.850;25.948;2023-02-23T00:11:22;14.43;;;6.05;;
71343;SDS011;59146;43.850;25.948;2023-02-23T00:13:48;10.85;;;6.00;;
71343;SDS011;59146;43.850;25.948;2023-02-23T00:16:15;12.93;;;6.40;;
71343;SDS011;59146;43.850;25.948;2023-02-23T00:18:52;10.10;;;5.57;;
71343;SDS011;59146;43.850;25.948;2023-02-23T00:21:21;17.77;;;6.30;;
71343;SDS011;59146;43.850;25.948;2023-02-23T00:23:57;14.00;;;6.15;;
71343;SDS011;59146;43.850;25.948;2023-02-23T00:26:25;12.52;;;5.30;;
71343;SDS011;59146;43.850;25.948;2023-02-23T00:28:55;11.73;;;5.13;;
71343;SDS011;59146;43.850;25.948;2023-02-23T00:31:21;11.25;;;5.47;;
71343;SDS011;59146;43.850;25.948;2023-02-23T00:33:50;12.15;;;5.75;;
71343;SDS011;59146;43.850;25.948;2023-02-23T00:36:19;11.25;;;4.72;;
71343;SDS011;59146;43.850;25.948;2023-02-23T00:38:45;10.10;;;6.00;;
71343;SDS011;59146;43.850;25.948;2023-02-23T00:41:14;10.93;;;5.40;;
71343;SDS011;59146;43.850;25.948;2023-02-23T00:43:48;12.25;;;6.13;;
71343;SDS011;59146;43.850;25.948;2023-02-23T00:46:17;10.77;;;6.15;;
71343;SDS011;59146;43.850;25.948;2023-02-23T00:48:45;11.35;;;6.15;;
71343;SDS011;59146;43.850;25.948;2023-02-23T00:51:12;11.68;;;6.03;;
71343;SDS011;59146;43.850;25.948;2023-02-23T00:53:37;11.90;;;5.65;;
71343;SDS011;59146;43.850;25.948;2023-02-23T00:56:03;10.20;;;5.63;;
71343;SDS011;59146;43.850;25.948;2023-02-23T00:58:29;14.52;;;6.47;;
71343;SDS011;59146;43.850;25.948;2023-02-23T01:00:56;14.73;;;6.70;;
71343;SDS011;59146;43.850;25.948;2023-02-23T01:03:23;15.90;;;6.38;;
71343;SDS011;59146;43.850;25.948;2023-02-23T01:05:49;10.52;;;6.28;;
71343;SDS011;59146;43.850;25.948;2023-02-23T01:08:16;17.13;;;6.45;;
71343;SDS011;59146;43.850;25.948;2023-02-23T01:10:42;11.25;;;5.90;;
71343;SDS011;59146;43.850;25.948;2023-02-23T01:13:09;14.07;;;6.60;;
71343;SDS011;59146;43.850;25.948;2023-02-23T01:15:42;14.93;;;5.93;;
71343;SDS011;59146;43.850;25.948;2023-02-23T01:18:11;12.48;;;5.75;;
71343;SDS011;59146;43.850;25.948;2023-02-23T01:20:37;18.98;;;5.90;;
71343;SDS011;59146;43.850;25.948;2023-02-23T01:23:05;14.55;;;5.70;;
71343;SDS011;59146;43.850;25.948;2023-02-23T01:25:31;13.02;;;5.35;;
71343;SDS011;59146;43.850;25.948;2023-02-23T01:27:58;14.57;;;5.38;;
71343;SDS011;59146;43.850;25.948;2023-02-23T01:30:23;12.88;;;5.47;;
71343;SDS011;59146;43.850;25.948;2023-02-23T01:32:49;12.38;;;5.40;;
71343;SDS011;59146;43.850;25.948;2023-02-23T01:35:14;12.82;;;5.50;;
71343;SDS011;59146;43.850;25.948;2023-02-23T01:37:41;10.15;;;5.45;;
71343;SDS011;59146;43.850;25.948;2023-02-23T01:40:11;10.98;;;5.32;;
71343;SDS011;59146;43.850;25.948;2023-02-23T01:42:40;14.80;;;5.50;;
71343;SDS011;59146;43.850;25.948;2023-02-23T01:47:59;15.55;;;5.75;;
71343;SDS011;59146;43.850;25.948;2023-02-23T01:53:00;18.20;;;5.45;;
71343;SDS011;59146;43.850;25.948;2023-02-23T01:55:25;16.13;;;5.60;;
71343;SDS011;59146;43.850;25.948;2023-02-23T01:57:54;11.30;;;5.15;;
71343;SDS011;59146;43.850;25.948;2023-02-23T02:00:24;11.45;;;5.75;;
71343;SDS011;59146;43.850;25.948;2023-02-23T02:02:51;12.35;;;5.53;;
71343;SDS011;59146;43.850;25.948;2023-02-23T02:05:17;14.05;;;6.88;;
71343;SDS011;59146;43.850;25.948;2023-02-23T02:07:44;15.27;;;5.78;;
71343;SDS011;59146;43.850;25.948;2023-02-23T02:10:11;12.60;;;5.63;;
71343;SDS011;59146;43.850;25.948;2023-02-23T02:12:37;14.07;;;5.75;;
71343;SDS011;59146;43.850;25.948;2023-02-23T02:15:05;15.32;;;6.43;;
71343;SDS011;59146;43.850;25.948;2023-02-23T02:31:58;11.05;;;5.80;;
71343;SDS011;59146;43.850;25.948;2023-02-23T02:34:45;14.30;;;5.03;;
71343;SDS011;59146;43.850;25.948;2023-02-23T02:45:23;10.07;;;4.77;;
71343;SDS011;59146;43.850;25.948;2023-02-23T02:47:55;16.55;;;5.40;;
71343;SDS011;59146;43.850;25.948;2023-02-23T02:53:16;13.88;;;4.82;;
71343;SDS011;59146;43.850;25.948;2023-02-23T02:55:47;11.13;;;4.95;;
71343;SDS011;59146;43.850;25.948;2023-02-23T02:58:14;12.43;;;5.28;;
71343;SDS011;59146;43.850;25.948;2023-02-23T03:00:46;12.48;;;4.65;;
71343;SDS011;59146;43.850;25.948;2023-02-23T03:03:37;10.77;;;4.63;;
71343;SDS011;59146;43.850;25.948;2023-02-23T03:06:25;13.90;;;4.90;;
71343;SDS011;59146;43.850;25.948;2023-02-23T03:09:21;12.68;;;5.55;;
71343;SDS011;59146;43.850;25.948;2023-02-23T03:12:33;12.52;;;4.68;;
71343;SDS011;59146;43.850;25.948;2023-02-23T03:15:26;9.75;;;5.45;;
71343;SDS011;59146;43.850;25.948;2023-02-23T03:21:18;13.88;;;6.95;;
71343;SDS011;59146;43.850;25.948;2023-02-23T03:24:30;8.63;;;5.28;;
71343;SDS011;59146;43.850;25.948;2023-02-23T03:27:22;12.32;;;5.00;;
71343;SDS011;59146;43.850;25.948;2023-02-23T03:30:21;9.38;;;4.88;;
71343;SDS011;59146;43.850;25.948;2023-02-23T03:33:22;9.90;;;5.15;;
71343;SDS011;59146;43.850;25.948;2023-02-23T03:36:16;9.60;;;4.43;;
71343;SDS011;59146;43.850;25.948;2023-02-23T03:39:08;12.80;;;4.68;;
71343;SDS011;59146;43.850;25.948;2023-02-23T03:42:01;15.65;;;6.82;;
71343;SDS011;59146;43.850;25.948;2023-02-23T03:44:48;13.32;;;5.43;;
71343;SDS011;59146;43.850;25.948;2023-02-23T03:47:36;8.85;;;4.90;;
71343;SDS011;59146;43.850;25.948;2023-02-23T03:50:46;12.65;;;4.72;;
71343;SDS011;59146;43.850;25.948;2023-02-23T03:53:34;9.45;;;5.28;;
71343;SDS011;59146;43.850;25.948;2023-02-23T03:56:27;13.43;;;5.22;;
71343;SDS011;59146;43.850;25.948;2023-02-23T03:59:14;10.77;;;5.25;;
71343;SDS011;59146;43.850;25.948;2023-02-23T04:02:02;9.23;;;4.75;;
71343;SDS011;59146;43.850;25.948;2023-02-23T04:04:49;11.93;;;6.00;;
71343;SDS011;59146;43.850;25.948;2023-02-23T04:07:35;17.38;;;5.70;;
71343;SDS011;59146;43.850;25.948;2023-02-23T04:10:21;13.65;;;6.88;;
71343;SDS011;59146;43.850;25.948;2023-02-23T04:13:12;14.07;;;7.40;;
71343;SDS011;59146;43.850;25.948;2023-02-23T04:15:55;20.45;;;6.50;;
71343;SDS011;59146;43.850;25.948;2023-02-23T04:18:25;13.05;;;6.53;;
71343;SDS011;59146;43.850;25.948;2023-02-23T04:20:54;11.52;;;6.57;;
71343;SDS011;59146;43.850;25.948;2023-02-23T04:23:20;13.13;;;6.22;;
71343;SDS011;59146;43.850;25.948;2023-02-23T04:25:49;15.73;;;6.15;;
71343;SDS011;59146;43.850;25.948;2023-02-23T04:28:16;15.85;;;7.15;;
71343;SDS011;59146;43.850;25.948;2023-02-23T04:30:41;19.00;;;7.40;;
71343;SDS011;59146;43.850;25.948;2023-02-23T04:33:08;12.43;;;5.90;;
71343;SDS011;59146;43.850;25.948;2023-02-23T04:35:33;16.25;;;7.22;;
71343;SDS011;59146;43.850;25.948;2023-02-23T04:37:59;15.23;;;6.25;;
71343;SDS011;59146;43.850;25.948;2023-02-23T04:40:24;16.73;;;7.47;;
71343;SDS011;59146;43.850;25.948;2023-02-23T04:42:51;15.32;;;6.60;;
71343;SDS011;59146;43.850;25.948;2023-02-23T04:45:17;12.05;;;6.22;;
71343;SDS011;59146;43.850;25.948;2023-02-23T04:47:43;20.38;;;6.78;;
71343;SDS011;59146;43.850;25.948;2023-02-23T04:50:09;20.45;;;7.97;;
71343;SDS011;59146;43.850;25.948;2023-02-23T04:52:36;15.25;;;6.88;;
71343;SDS011;59146;43.850;25.948;2023-02-23T04:55:03;15.63;;;8.10;;
71343;SDS011;59146;43.850;25.948;2023-02-23T04:57:31;13.88;;;6.75;;
71343;SDS011;59146;43.850;25.948;2023-02-23T04:59:56;21.40;;;7.57;;
71343;SDS011;59146;43.850;25.948;2023-02-23T05:02:22;16.08;;;8.02;;
71343;SDS011;59146;43.850;25.948;2023-02-23T05:04:48;13.98;;;7.07;;
71343;SDS011;59146;43.850;25.948;2023-02-23T05:07:13;9.57;;;6.13;;
71343;SDS011;59146;43.850;25.948;2023-02-23T05:09:39;16.13;;;6.78;;
71343;SDS011;59146;43.850;25.948;2023-02-23T05:12:04;26.13;;;6.88;;
71343;SDS011;59146;43.850;25.948;2023-02-23T05:14:29;22.33;;;6.40;;
71343;SDS011;59146;43.850;25.948;2023-02-23T05:16:55;13.68;;;6.82;;
71343;SDS011;59146;43.850;25.948;2023-02-23T05:19:21;9.70;;;6.07;;
71343;SDS011;59146;43.850;25.948;2023-02-23T05:21:46;19.60;;;6.20;;
71343;SDS011;59146;43.850;25.948;2023-02-23T05:24:11;23.15;;;6.63;;
71343;SDS011;59146;43.850;25.948;2023-02-23T05:26:37;11.10;;;6.55;;
71343;SDS011;59146;43.850;25.948;2023-02-23T05:29:03;17.83;;;6.55;;
71343;SDS011;59146;43.850;25.948;2023-02-23T05:31:30;16.83;;;5.90;;
71343;SDS011;59146;43.850;25.948;2023-02-23T05:33:56;14.88;;;6.85;;
71343;SDS011;59146;43.850;25.948;2023-02-23T05:36:21;13.07;;;6.22;;
71343;SDS011;59146;43.850;25.948;2023-02-23T05:38:47;19.30;;;5.88;;
71343;SDS011;59146;43.850;25.948;2023-02-23T05:41:18;14.15;;;7.18;;
71343;SDS011;59146;43.850;25.948;2023-02-23T05:43:46;11.90;;;6.13;;
71343;SDS011;59146;43.850;25.948;2023-02-23T05:46:16;10.70;;;5.60;;
71343;SDS011;59146;43.850;25.948;2023-02-23T05:48:43;15.40;;;7.80;;
71343;SDS011;59146;43.850;25.948;2023-02-23T05:51:09;17.08;;;6.97;;
71343;SDS011;59146;43.850;25.948;2023-02-23T05:53:36;16.38;;;7.82;;
71343;SDS011;59146;43.850;25.948;2023-02-23T05:56:03;17.63;;;7.00;;
71343;SDS011;59146;43.850;25.948;2023-02-23T05:58:30;13.25;;;6.32;;
71343;SDS011;59146;43.850;25.948;2023-02-23T06:00:55;13.25;;;8.35;;
71343;SDS011;59146;43.850;25.948;2023-02-23T06:03:21;20.30;;;8.13;;
71343;SDS011;59146;43.850;25.948;2023-02-23T06:05:53;20.45;;;7.22;;
71343;SDS011;59146;43.850;25.948;2023-02-23T06:08:21;24.38;;;7.60;;
71343;SDS011;59146;43.850;25.948;2023-02-23T06:10:49;14.70;;;6.55;;
71343;SDS011;59146;43.850;25.948;2023-02-23T06:13:14;22.33;;;7.22;;
71343;SDS011;59146;43.850;25.948;2023-02-23T06:15:40;16.45;;;6.40;;
71343;SDS011;59146;43.850;25.948;2023-02-23T06:18:05;20.85;;;7.00;;
71343;SDS011;59146;43.850;25.948;2023-02-23T06:20:35;16.75;;;6.68;;
71343;SDS011;59146;43.850;25.948;2023-02-23T06:23:01;14.07;;;6.85;;
71343;SDS011;59146;43.850;25.948;2023-02-23T06:25:26;13.27;;;6.40;;
71343;SDS011;59146;43.850;25.948;2023-02-23T06:27:52;23.48;;;7.22;;
71343;SDS011;59146;43.850;25.948;2023-02-23T06:30:18;21.77;;;8.55;;
71343;SDS011;59146;43.850;25.948;2023-02-23T06:32:45;35.40;;;10.88;;
71343;SDS011;59146;43.850;25.948;2023-02-23T06:35:10;24.33;;;9.55;;
71343;SDS011;59146;43.850;25.948;2023-02-23T06:37:35;26.67;;;11.20;;
71343;SDS011;59146;43.850;25.948;2023-02-23T06:40:02;26.85;;;7.40;;
71343;SDS011;59146;43.850;25.948;2023-02-23T06:42:28;19.27;;;10.75;;
71343;SDS011;59146;43.850;25.948;2023-02-23T06:44:53;28.80;;;8.32;;
71343;SDS011;59146;43.850;25.948;2023-02-23T06:47:19;22.52;;;7.95;;
71343;SDS011;59146;43.850;25.948;2023-02-23T06:49:44;29.02;;;10.00;;
71343;SDS011;59146;43.850;25.948;2023-02-23T06:52:10;38.08;;;11.38;;
71343;SDS011;59146;43.850;25.948;2023-02-23T06:54:37;25.92;;;8.35;;
71343;SDS011;59146;43.850;25.948;2023-02-23T06:57:04;26.30;;;7.18;;
71343;SDS011;59146;43.850;25.948;2023-02-23T06:59:30;27.38;;;9.48;;
71343;SDS011;59146;43.850;25.948;2023-02-23T07:01:55;19.02;;;8.25;;
71343;SDS011;59146;43.850;25.948;2023-02-23T07:04:21;27.65;;;8.60;;
71343;SDS011;59146;43.850;25.948;2023-02-23T07:06:46;23.77;;;9.80;;
71343;SDS011;59146;43.850;25.948;2023-02-23T07:09:12;37.58;;;9.65;;
71343;SDS011;59146;43.850;25.948;2023-02-23T07:11:39;25.55;;;10.70;;
71343;SDS011;59146;43.850;25.948;2023-02-23T07:14:05;22.98;;;7.65;;
71343;SDS011;59146;43.850;25.948;2023-02-23T07:16:33;22.33;;;9.13;;
71343;SDS011;59146;43.850;25.948;2023-02-23T07:18:59;24.35;;;10.43;;
71343;SDS011;59146;43.850;25.948;2023-02-23T07:21:24;25.55;;;10.02;;
71343;SDS011;59146;43.850;25.948;2023-02-23T07:23:49;31.63;;;9.52;;
71343;SDS011;59146;43.850;25.948;2023-02-23T07:26:15;15.23;;;7.85;;
71343;SDS011;59146;43.850;25.948;2023-02-23T07:28:42;25.27;;;9.23;;
71343;SDS011;59146;43.850;25.948;2023-02-23T07:31:08;23.30;;;8.65;;
71343;SDS011;59146;43.850;25.948;2023-02-23T07:33:34;22.27;;;9.25;;
71343;SDS011;59146;43.850;25.948;2023-02-23T07:35:59;28.75;;;11.38;;
71343;SDS011;59146;43.850;25.948;2023-02-23T07:38:25;20.25;;;9.13;;
71343;SDS011;59146;43.850;25.948;2023-02-23T07:40:51;23.50;;;10.15;;
71343;SDS011;59146;43.850;25.948;2023-02-23T07:43:16;30.95;;;10.57;;
71343;SDS011;59146;43.850;25.948;2023-02-23T07:45:46;30.85;;;10.15;;
71343;SDS011;59146;43.850;25.948;2023-02-23T07:48:12;32.75;;;9.70;;
71343;SDS011;59146;43.850;25.948;2023-02-23T07:50:38;34.53;;;9.70;;
71343;SDS011;59146;43.850;25.948;2023-02-23T07:53:04;22.15;;;8.65;;
71343;SDS011;59146;43.850;25.948;2023-02-23T07:55:30;26.17;;;9.10;;
71343;SDS011;59146;43.850;25.948;2023-02-23T07:57:56;31.27;;;10.00;;
71343;SDS011;59146;43.850;25.948;2023-02-23T08:00:21;28.02;;;9.55;;
71343;SDS011;59146;43.850;25.948;2023-02-23T08:02:49;22.23;;;8.55;;
71343;SDS011;59146;43.850;25.948;2023-02-23T08:05:14;18.00;;;8.02;;
71343;SDS011;59146;43.850;25.948;2023-02-23T08:07:40;17.38;;;7.45;;
71343;SDS011;59146;43.850;25.948;2023-02-23T08:10:06;17.58;;;9.45;;
71343;SDS011;59146;43.850;25.948;2023-02-23T08:12:32;27.80;;;8.30;;
71343;SDS011;59146;43.850;25.948;2023-02-23T08:14:58;15.80;;;7.40;;
71343;SDS011;59146;43.850;25.948;2023-02-23T08:17:23;17.00;;;7.78;;
71343;SDS011;59146;43.850;25.948;2023-02-23T08:19:49;14.82;;;7.22;;
71343;SDS011;59146;43.850;25.948;2023-02-23T08:22:15;22.08;;;8.40;;
71343;SDS011;59146;43.850;25.948;2023-02-23T08:24:40;24.98;;;8.23;;
71343;SDS011;59146;43.850;25.948;2023-02-23T08:27:06;27.67;;;10.25;;
71343;SDS011;59146;43.850;25.948;2023-02-23T08:29:31;23.85;;;8.95;;
71343;SDS011;59146;43.850;25.948;2023-02-23T08:32:00;17.58;;;6.57;;
71343;SDS011;59146;43.850;25.948;2023-02-23T08:34:26;18.95;;;7.43;;
71343;SDS011;59146;43.850;25.948;2023-02-23T08:36:52;18.67;;;7.40;;
71343;SDS011;59146;43.850;25.948;2023-02-23T08:39:18;20.90;;;8.02;;
71343;SDS011;59146;43.850;25.948;2023-02-23T08:41:43;18.95;;;7.70;;
71343;SDS011;59146;43.850;25.948;2023-02-23T08:44:09;28.15;;;8.18;;
71343;SDS011;59146;43.850;25.948;2023-02-23T08:46:34;21.40;;;8.13;;
71343;SDS011;59146;43.850;25.948;2023-02-23T08:48:59;26.88;;;7.43;;
71343;SDS011;59146;43.850;25.948;2023-02-23T08:51:25;21.38;;;9.02;;
71343;SDS011;59146;43.850;25.948;2023-02-23T08:53:50;21.20;;;7.57;;
71343;SDS011;59146;43.850;25.948;2023-02-23T08:56:16;18.17;;;8.65;;
71343;SDS011;59146;43.850;25.948;2023-02-23T08:58:41;19.48;;;7.13;;
71343;SDS011;59146;43.850;25.948;2023-02-23T09:01:13;18.35;;;7.65;;
71343;SDS011;59146;43.850;25.948;2023-02-23T09:03:41;22.42;;;7.32;;
71343;SDS011;59146;43.850;25.948;2023-02-23T09:06:08;21.77;;;7.57;;
71343;SDS011;59146;43.850;25.948;2023-02-23T09:08:36;16.17;;;8.40;;
71343;SDS011;59146;43.850;25.948;2023-02-23T09:11:03;24.70;;;8.05;;
71343;SDS011;59146;43.850;25.948;2023-02-23T09:13:29;17.42;;;6.78;;
71343;SDS011;59146;43.850;25.948;2023-02-23T09:15:55;12.43;;;6.22;;
71343;SDS011;59146;43.850;25.948;2023-02-23T09:18:20;20.50;;;6.55;;
71343;SDS011;59146;43.850;25.948;2023-02-23T09:20:48;19.17;;;6.68;;
71343;SDS011;59146;43.850;25.948;2023-02-23T09:23:14;11.80;;;6.45;;
71343;SDS011;59146;43.850;25.948;2023-02-23T09:25:40;22.85;;;6.70;;
71343;SDS011;59146;43.850;25.948;2023-02-23T09:28:13;14.50;;;6.22;;
71343;SDS011;59146;43.850;25.948;2023-02-23T09:30:43;11.60;;;5.97;;
71343;SDS011;59146;43.850;25.948;2023-02-23T09:33:09;11.52;;;6.25;;
71343;SDS011;59146;43.850;25.948;2023-02-23T09:35:35;14.85;;;6.10;;
71343;SDS011;59146;43.850;25.948;2023-02-23T09:38:02;22.90;;;6.72;;
71343;SDS011;59146;43.850;25.948;2023-02-23T09:40:29;13.90;;;7.47;;
71343;SDS011;59146;43.850;25.948;2023-02-23T09:49:10;13.88;;;6.32;;
71343;SDS011;59146;43.850;25.948;2023-02-23T09:51:43;13.60;;;5.43;;
71343;SDS011;59146;43.850;25.948;2023-02-23T09:54:13;14.43;;;5.78;;
71343;SDS011;59146;43.850;25.948;2023-02-23T09:56:43;17.02;;;6.55;;
71343;SDS011;59146;43.850;25.948;2023-02-23T09:59:12;16.88;;;5.75;;
71343;SDS011;59146;43.850;25.948;2023-02-23T10:04:17;8.48;;;4.72;;
71343;SDS011;59146;43.850;25.948;2023-02-23T10:06:49;10.40;;;4.60;;
71343;SDS011;59146;43.850;25.948;2023-02-23T10:12:21;12.70;;;5.40;;
71343;SDS011;59146;43.850;25.948;2023-02-23T10:22:43;22.75;;;5.47;;
71343;SDS011;59146;43.850;25.948;2023-02-23T10:25:13;16.90;;;6.80;;
71343;SDS011;59146;43.850;25.948;2023-02-23T10:27:44;12.90;;;4.65;;
71343;SDS011;59146;43.850;25.948;2023-02-23T10:30:20;20.23;;;5.05;;
71343;SDS011;59146;43.850;25.948;2023-02-23T10:33:00;18.13;;;5.47;;
71343;SDS011;59146;43.850;25.948;2023-02-23T10:35:31;16.45;;;5.07;;
71343;SDS011;59146;43.850;25.948;2023-02-23T10:37:58;18.83;;;6.38;;
71343;SDS011;59146;43.850;25.948;2023-02-23T10:40:26;14.60;;;5.50;;
71343;SDS011;59146;43.850;25.948;2023-02-23T10:42:53;11.48;;;5.32;;
71343;SDS011;59146;43.850;25.948;2023-02-23T10:45:22;12.50;;;4.65;;
71343;SDS011;59146;43.850;25.948;2023-02-23T10:48:10;12.00;;;5.25;;
71343;SDS011;59146;43.850;25.948;2023-02-23T10:50:41;9.93;;;4.90;;
71343;SDS011;59146;43.850;25.948;2023-02-23T10:55:46;14.65;;;5.30;;
71343;SDS011;59146;43.850;25.948;2023-02-23T10:58:25;16.13;;;5.72;;
71343;SDS011;59146;43.850;25.948;2023-02-23T11:09:10;10.35;;;4.50;;
71343;SDS011;59146;43.850;25.948;2023-02-23T11:11:40;11.82;;;4.82;;
71343;SDS011;59146;43.850;25.948;2023-02-23T11:14:22;11.68;;;4.65;;
71343;SDS011;59146;43.850;25.948;2023-02-23T11:16:51;14.25;;;4.35;;
71343;SDS011;59146;43.850;25.948;2023-02-23T11:19:33;17.60;;;4.80;;
71343;SDS011;59146;43.850;25.948;2023-02-23T11:22:01;15.80;;;4.90;;
71343;SDS011;59146;43.850;25.948;2023-02-23T11:24:31;12.23;;;4.40;;
71343;SDS011;59146;43.850;25.948;2023-02-23T11:27:00;13.68;;;4.22;;
71343;SDS011;59146;43.850;25.948;2023-02-23T11:32:25;16.48;;;4.57;;
71343;SDS011;59146;43.850;25.948;2023-02-23T11:37:43;9.27;;;4.28;;
71343;SDS011;59146;43.850;25.948;2023-02-23T11:40:19;11.32;;;4.75;;
71343;SDS011;59146;43.850;25.948;2023-02-23T11:43:08;11.82;;;4.32;;
71343;SDS011;59146;43.850;25.948;2023-02-23T11:45:44;11.40;;;4.82;;
71343;SDS011;59146;43.850;25.948;2023-02-23T11:48:19;15.25;;;4.70;;
71343;SDS011;59146;43.850;25.948;2023-02-23T11:50:49;16.58;;;4.55;;
71343;SDS011;59146;43.850;25.948;2023-02-23T11:53:18;17.15;;;4.63;;
71343;SDS011;59146;43.850;25.948;2023-02-23T11:55:53;13.80;;;5.40;;
71343;SDS011;59146;43.850;25.948;2023-02-23T12:01:08;16.33;;;6.40;;
71343;SDS011;59146;43.850;25.948;2023-02-23T12:03:48;16.63;;;7.45;;
71343;SDS011;59146;43.850;25.948;2023-02-23T12:06:30;16.80;;;5.80;;
71343;SDS011;59146;43.850;25.948;2023-02-23T12:08:59;20.20;;;6.70;;
71343;SDS011;59146;43.850;25.948;2023-02-23T12:11:38;14.00;;;5.70;;
71343;SDS011;59146;43.850;25.948;2023-02-23T12:16:52;13.82;;;4.95;;
71343;SDS011;59146;43.850;25.948;2023-02-23T12:22:03;11.15;;;5.32;;
71343;SDS011;59146;43.850;25.948;2023-02-23T12:27:20;10.45;;;4.43;;
71343;SDS011;59146;43.850;25.948;2023-02-23T12:30:11;7.95;;;4.25;;
71343;SDS011;59146;43.850;25.948;2023-02-23T12:32:57;11.35;;;4.68;;
71343;SDS011;59146;43.850;25.948;2023-02-23T12:41:10;10.68;;;3.88;;
71343;SDS011;59146;43.850;25.948;2023-02-23T12:46:26;8.23;;;3.30;;
71343;SDS011;59146;43.850;25.948;2023-02-23T12:51:54;8.27;;;3.55;;
71343;SDS011;59146;43.850;25.948;2023-02-23T12:54:26;11.73;;;3.55;;
71343;SDS011;59146;43.850;25.948;2023-02-23T13:02:28;11.85;;;3.45;;
71343;SDS011;59146;43.850;25.948;2023-02-23T13:13:39;10.55;;;3.20;;
71343;SDS011;59146;43.850;25.948;2023-02-23T13:18:48;15.18;;;3.60;;
71343;SDS011;59146;43.850;25.948;2023-02-23T13:21:32;11.55;;;3.65;;
71343;SDS011;59146;43.850;25.948;2023-02-23T13:32:00;6.82;;;2.83;;
71343;SDS011;59146;43.850;25.948;2023-02-23T13:34:34;10.20;;;2.80;;
71343;SDS011;59146;43.850;25.948;2023-02-23T13:37:06;10.98;;;2.92;;
71343;SDS011;59146;43.850;25.948;2023-02-23T13:50:27;9.48;;;3.35;;
71343;SDS011;59146;43.850;25.948;2023-02-23T13:53:05;9.48;;;3.35;;
71343;SDS011;59146;43.850;25.948;2023-02-23T13:55:51;9.45;;;3.42;;
71343;SDS011;59146;43.850;25.948;2023-02-23T13:58:28;11.65;;;4.30;;
71343;SDS011;59146;43.850;25.948;2023-02-23T14:01:03;15.25;;;4.80;;
71343;SDS011;59146;43.850;25.948;2023-02-23T14:03:29;9.13;;;3.67;;
71343;SDS011;59146;43.850;25.948;2023-02-23T14:06:02;13.68;;;4.32;;
71343;SDS011;59146;43.850;25.948;2023-02-23T14:08:35;18.20;;;6.70;;
71343;SDS011;59146;43.850;25.948;2023-02-23T14:11:02;18.33;;;5.88;;
71343;SDS011;59146;43.850;25.948;2023-02-23T14:13:34;22.25;;;7.68;;
71343;SDS011;59146;43.850;25.948;2023-02-23T14:16:18;17.98;;;4.63;;
71343;SDS011;59146;43.850;25.948;2023-02-23T14:18:54;14.43;;;3.88;;
71343;SDS011;59146;43.850;25.948;2023-02-23T14:26:17;7.35;;;3.13;;
71343;SDS011;59146;43.850;25.948;2023-02-23T14:31:54;12.15;;;3.97;;
71343;SDS011;59146;43.850;25.948;2023-02-23T14:37:24;7.97;;;2.83;;
71343;SDS011;59146;43.850;25.948;2023-02-23T14:39:50;8.88;;;2.47;;
71343;SDS011;59146;43.850;25.948;2023-02-23T14:42:25;11.68;;;2.78;;
71343;SDS011;59146;43.850;25.948;2023-02-23T14:44:54;8.60;;;3.10;;
71343;SDS011;59146;43.850;25.948;2023-02-23T14:47:21;7.88;;;3.40;;
71343;SDS011;59146;43.850;25.948;2023-02-23T14:49:58;14.07;;;3.70;;
71343;SDS011;59146;43.850;25.948;2023-02-23T14:52:32;13.15;;;3.17;;
71343;SDS011;59146;43.850;25.948;2023-02-23T14:57:36;7.47;;;3.00;;
71343;SDS011;59146;43.850;25.948;2023-02-23T15:00:22;10.68;;;3.05;;
71343;SDS011;59146;43.850;25.948;2023-02-23T15:06:11;14.23;;;4.18;;
71343;SDS011;59146;43.850;25.948;2023-02-23T15:08:37;13.40;;;3.83;;
71343;SDS011;59146;43.850;25.948;2023-02-23T15:11:10;12.48;;;4.10;;
71343;SDS011;59146;43.850;25.948;2023-02-23T15:13:41;8.52;;;3.25;;
71343;SDS011;59146;43.850;25.948;2023-02-23T15:16:32;7.45;;;3.25;;
71343;SDS011;59146;43.850;25.948;2023-02-23T15:19:00;7.03;;;2.58;;
71343;SDS011;59146;43.850;25.948;2023-02-23T15:21:28;7.75;;;2.80;;
71343;SDS011;59146;43.850;25.948;2023-02-23T15:23:58;8.95;;;3.13;;
71343;SDS011;59146;43.850;25.948;2023-02-23T15:26:34;11.40;;;3.53;;
71343;SDS011;59146;43.850;25.948;2023-02-23T15:31:48;11.60;;;3.10;;
71343;SDS011;59146;43.850;25.948;2023-02-23T15:39:37;7.57;;;3.35;;
71343;SDS011;59146;43.850;25.948;2023-02-23T15:42:09;10.43;;;3.22;;
71343;SDS011;59146;43.850;25.948;2023-02-23T15:44:39;9.83;;;3.20;;
71343;SDS011;59146;43.850;25.948;2023-02-23T15:47:08;9.27;;;4.20;;
71343;SDS011;59146;43.850;25.948;2023-02-23T15:49:44;16.00;;;5.13;;
71343;SDS011;59146;43.850;25.948;2023-02-23T15:52:14;7.30;;;3.03;;
71343;SDS011;59146;43.850;25.948;2023-02-23T15:54:54;7.20;;;3.03;;
71343;SDS011;59146;43.850;25.948;2023-02-23T15:57:31;10.68;;;2.83;;
71343;SDS011;59146;43.850;25.948;2023-02-23T16:00:04;6.85;;;3.08;;
71343;SDS011;59146;43.850;25.948;2023-02-23T16:02:40;12.82;;;3.47;;
71343;SDS011;59146;43.850;25.948;2023-02-23T16:05:21;11.75;;;3.33;;
71343;SDS011;59146;43.850;25.948;2023-02-23T16:07:53;8.23;;;2.72;;
71343;SDS011;59146;43.850;25.948;2023-02-23T16:10:53;14.73;;;2.88;;
71343;SDS011;59146;43.850;25.948;2023-02-23T16:13:25;13.95;;;3.00;;
71343;SDS011;59146;43.850;25.948;2023-02-23T16:15:52;10.05;;;2.90;;
71343;SDS011;59146;43.850;25.948;2023-02-23T16:18:20;13.65;;;3.70;;
71343;SDS011;59146;43.850;25.948;2023-02-23T16:20:51;12.38;;;3.88;;
71343;SDS011;59146;43.850;25.948;2023-02-23T16:25:57;12.38;;;4.15;;
71343;SDS011;59146;43.850;25.948;2023-02-23T16:28:26;14.85;;;4.18;;
71343;SDS011;59146;43.850;25.948;2023-02-23T16:30:56;10.73;;;4.63;;
71343;SDS011;59146;43.850;25.948;2023-02-23T16:33:30;16.80;;;5.50;;
71343;SDS011;59146;43.850;25.948;2023-02-23T16:38:35;15.68;;;4.97;;
71343;SDS011;59146;43.850;25.948;2023-02-23T16:41:02;13.85;;;5.40;;
71343;SDS011;59146;43.850;25.948;2023-02-23T16:43:29;12.50;;;4.13;;
71343;SDS011;59146;43.850;25.948;2023-02-23T16:45:55;12.38;;;4.72;;
71343;SDS011;59146;43.850;25.948;2023-02-23T16:48:21;14.02;;;5.55;;
71343;SDS011;59146;43.850;25.948;2023-02-23T16:50:48;12.68;;;4.68;;
71343;SDS011;59146;43.850;25.948;2023-02-23T16:53:14;17.88;;;5.38;;
71343;SDS011;59146;43.850;25.948;2023-02-23T16:55:59;14.07;;;5.05;;
71343;SDS011;59146;43.850;25.948;2023-02-23T16:58:25;11.32;;;5.07;;
71343;SDS011;59146;43.850;25.948;2023-02-23T17:00:53;22.92;;;6.95;;
71343;SDS011;59146;43.850;25.948;2023-02-23T17:03:23;8.95;;;4.07;;
71343;SDS011;59146;43.850;25.948;2023-02-23T17:05:50;11.75;;;4.82;;
71343;SDS011;59146;43.850;25.948;2023-02-23T17:08:16;16.25;;;5.65;;
71343;SDS011;59146;43.850;25.948;2023-02-23T17:10:42;12.05;;;5.05;;
71343;SDS011;59146;43.850;25.948;2023-02-23T17:13:20;16.77;;;5.72;;
71343;SDS011;59146;43.850;25.948;2023-02-23T17:15:48;12.43;;;4.50;;
71343;SDS011;59146;43.850;25.948;2023-02-23T17:18:24;14.48;;;4.45;;
71343;SDS011;59146;43.850;25.948;2023-02-23T17:23:17;11.55;;;4.80;;
71343;SDS011;59146;43.850;25.948;2023-02-23T17:25:44;15.32;;;5.60;;